Mitsukawa Maru — JD2495 — position and weather

sailwx.info

Track history (hours):
 
Tides and Currents Weather Stations Pressure Air Temp Water Temp Dewpoint Dewpoint Depression Visibility Wind Speed Wind Dir Waves Ship Positions

Mitsukawa Maru

Last reported at 2014-Dec-21 16:33 UTC. Time now 2014-Dec-22 02:46 UTC.
Position N 35°31' E 139°56'.

Length 105 m; draft 6.7 m.

Type: Cargo ship. MMSI: 431000326.

Date/timePositionNaut miles runAvg speedWind from/ knotsBaromVisibWave heightAir tempDewpointWater temp
2014-Dec-21 16:33N 35°31' E 139°56'1212.6
2014-Dec-21 15:33N 35°22' E 139°45'1211.6
2014-Dec-21 14:33N 35°11' E 139°46'  
2014-Dec-18 14:25N 35°07' E 139°41'1112.1
2014-Dec-18 13:33N 35°17' E 139°45'1010.6
2014-Dec-18 12:33N 35°27' E 139°47'12 0.6
2014-Dec-17 18:33N 35°34' E 139°59'0 0.0
2014-Dec-17 16:07N 35°34' E 139°59'3 0.3
2014-Dec-17 04:20N 35°32' E 139°56'1012.5
2014-Dec-17 03:34N 35°25' E 139°48'1010.2
2014-Dec-17 02:34N 35°15' E 139°47'  
Track history (hours):
 
Tides and Currents Weather Stations Pressure Air Temp Water Temp Dewpoint Dewpoint Depression Visibility Wind Speed Wind Dir Waves Ship Positions

Mitsukawa Maru

Last reported at 2014-Dec-21 16:33 UTC. Time now 2014-Dec-22 02:46 UTC.
Position N 35°31' E 139°56'.

Length 105 m; draft 6.7 m.

Type: Cargo ship. MMSI: 431000326.

Date/timePositionNaut miles runAvg speedWind from/ knotsBaromVisibWave heightAir tempDewpointWater temp
2014-Dec-21 16:33N 35°31' E 139°56'1212.6
2014-Dec-21 15:33N 35°22' E 139°45'1211.6
2014-Dec-21 14:33N 35°11' E 139°46'  
2014-Dec-18 14:25N 35°07' E 139°41'1112.1
2014-Dec-18 13:33N 35°17' E 139°45'1010.6
2014-Dec-18 12:33N 35°27' E 139°47'12 0.6
2014-Dec-17 18:33N 35°34' E 139°59'0 0.0
2014-Dec-17 16:07N 35°34' E 139°59'3 0.3
2014-Dec-17 04:20N 35°32' E 139°56'1012.5
2014-Dec-17 03:34N 35°25' E 139°48'1010.2
2014-Dec-17 02:34N 35°15' E 139°47'  

Dump ship's entire track history